createdAt,value
2019-03-01T00:01:52.550Z,12.03
2019-03-01T00:04:47.096Z,14.43
2019-03-01T00:07:55.646Z,9.90
2019-03-01T00:10:37.240Z,11.60
2019-03-01T00:13:32.946Z,10.50
2019-03-01T00:16:30.747Z,8.90
2019-03-01T00:19:16.071Z,9.30
2019-03-01T00:22:04.105Z,6.13
2019-03-01T00:24:49.340Z,6.57
2019-03-01T00:27:28.472Z,5.83
2019-03-01T00:30:16.705Z,5.07
2019-03-01T00:33:08.244Z,4.37
2019-03-01T00:36:02.517Z,5.47
2019-03-01T00:38:47.639Z,6.33
2019-03-01T00:41:32.900Z,5.63
2019-03-01T00:44:12.193Z,4.87
2019-03-01T00:46:45.449Z,7.40
2019-03-01T00:49:18.741Z,5.83
2019-03-01T00:51:52.015Z,6.00
2019-03-01T00:54:25.301Z,4.60
2019-03-01T00:56:58.585Z,3.50
2019-03-01T00:59:31.884Z,8.03
2019-03-01T01:02:05.332Z,5.73
2019-03-01T01:04:38.629Z,7.70
2019-03-01T01:07:11.895Z,7.77
2019-03-01T01:09:45.200Z,8.13
2019-03-01T01:12:18.545Z,6.23
2019-03-01T01:14:51.831Z,7.40
2019-03-01T01:17:25.121Z,7.80
2019-03-01T01:19:58.439Z,7.07
2019-03-01T01:22:31.702Z,4.50
2019-03-01T01:25:05.555Z,6.00
2019-03-01T01:27:38.835Z,5.03
2019-03-01T01:30:14.076Z,6.83
2019-03-01T01:32:47.342Z,5.23
2019-03-01T01:35:20.628Z,4.93
2019-03-01T01:37:53.887Z,6.87
2019-03-01T01:40:27.159Z,6.27
2019-03-01T01:43:00.508Z,7.73
2019-03-01T01:45:33.793Z,7.47
2019-03-01T01:48:07.065Z,8.27
2019-03-01T01:50:40.345Z,5.27
2019-03-01T01:53:13.626Z,7.97
2019-03-01T01:55:46.949Z,6.83
2019-03-01T01:58:20.234Z,9.43
2019-03-01T02:00:53.544Z,7.93
2019-03-01T02:03:26.826Z,6.17
2019-03-01T02:06:00.391Z,6.77
2019-03-01T02:08:33.635Z,7.37
2019-03-01T02:11:06.917Z,6.00
2019-03-01T02:13:40.179Z,6.00
2019-03-01T02:16:13.539Z,6.40
2019-03-01T02:18:46.883Z,6.50
2019-03-01T02:21:20.200Z,6.70
2019-03-01T02:23:53.475Z,6.37
2019-03-01T02:26:26.760Z,10.70
2019-03-01T02:29:00.024Z,5.20
2019-03-01T02:31:33.381Z,8.87
2019-03-01T02:34:06.657Z,8.77
2019-03-01T02:36:39.960Z,6.93
2019-03-01T02:39:13.225Z,6.97
2019-03-01T02:41:46.524Z,7.53
2019-03-01T02:44:19.789Z,7.60
2019-03-01T02:46:53.082Z,7.43
2019-03-01T02:49:26.378Z,7.07
2019-03-01T02:51:59.849Z,8.60
2019-03-01T02:54:33.254Z,8.70
2019-03-01T02:57:06.619Z,9.67
2019-03-01T02:59:39.949Z,6.00
2019-03-01T03:02:13.229Z,8.13
2019-03-01T03:04:46.497Z,9.93
2019-03-01T03:07:21.410Z,6.83
2019-03-01T03:09:54.714Z,8.17
2019-03-01T03:12:27.989Z,8.37
2019-03-01T03:15:01.281Z,11.70
2019-03-01T03:17:34.535Z,9.50
2019-03-01T03:20:09.975Z,12.13
2019-03-01T03:22:43.344Z,10.53
2019-03-01T03:25:16.692Z,15.57
2019-03-01T03:27:49.968Z,13.33
2019-03-01T03:30:23.383Z,9.73
2019-03-01T03:32:56.681Z,16.00
2019-03-01T03:35:29.962Z,11.20
2019-03-01T03:38:03.242Z,9.97
2019-03-01T03:40:36.534Z,11.13
2019-03-01T03:43:09.987Z,11.70
2019-03-01T03:45:43.277Z,11.70
2019-03-01T03:48:16.551Z,11.30
2019-03-01T03:50:49.877Z,11.33
2019-03-01T03:53:23.155Z,15.43
2019-03-01T03:55:56.504Z,12.87
2019-03-01T03:58:29.944Z,11.37
2019-03-01T04:01:03.224Z,11.10
2019-03-01T04:03:36.555Z,15.80
2019-03-01T04:06:09.856Z,14.67
2019-03-01T04:08:43.223Z,11.90
2019-03-01T04:11:16.513Z,9.50
2019-03-01T04:13:49.795Z,11.67
2019-03-01T04:16:23.120Z,11.27
2019-03-01T04:18:56.438Z,12.90
2019-03-01T04:21:29.788Z,11.23
2019-03-01T04:24:03.047Z,13.30
2019-03-01T04:26:36.335Z,13.80
2019-03-01T04:29:09.637Z,10.90
2019-03-01T04:31:42.909Z,10.67
2019-03-01T04:34:16.168Z,11.07
2019-03-01T04:36:49.468Z,13.37
2019-03-01T04:39:22.739Z,9.93
2019-03-01T04:41:56.027Z,13.90
2019-03-01T04:44:29.300Z,10.20
2019-03-01T04:47:02.589Z,13.20
2019-03-01T04:49:36.018Z,11.93
2019-03-01T04:52:29.992Z,12.97
2019-03-01T04:55:03.525Z,12.17
2019-03-01T04:57:36.801Z,12.90
2019-03-01T05:00:15.399Z,10.53
2019-03-01T05:02:48.808Z,12.93
2019-03-01T05:05:22.251Z,14.67
2019-03-01T05:07:55.551Z,9.70
2019-03-01T05:10:28.826Z,9.63
2019-03-01T05:13:02.119Z,11.17
2019-03-01T05:15:35.404Z,13.27
2019-03-01T05:18:08.693Z,11.13
2019-03-01T05:20:42.070Z,9.03
2019-03-01T05:23:15.349Z,10.20
2019-03-01T05:25:48.628Z,9.20
2019-03-01T05:28:21.924Z,11.10
2019-03-01T05:30:55.192Z,10.27
2019-03-01T05:33:28.498Z,10.13
2019-03-01T05:36:01.787Z,11.83
2019-03-01T05:38:35.053Z,10.17
2019-03-01T05:41:08.318Z,15.70
2019-03-01T05:43:41.628Z,9.37
2019-03-01T05:46:14.874Z,9.77
2019-03-01T05:48:48.171Z,9.07
2019-03-01T05:51:21.467Z,10.63
2019-03-01T05:53:54.786Z,10.97
2019-03-01T05:56:28.098Z,11.50
2019-03-01T05:59:12.737Z,11.53
2019-03-01T06:01:55.038Z,9.83
2019-03-01T06:04:31.518Z,8.40
2019-03-01T06:07:20.090Z,10.60
2019-03-01T06:10:02.178Z,11.00
2019-03-01T06:12:38.625Z,12.77
2019-03-01T06:15:39.303Z,16.57
2019-03-01T06:18:35.384Z,12.20
2019-03-01T06:21:14.721Z,12.90
2019-03-01T06:24:03.322Z,9.97
2019-03-01T06:26:42.431Z,12.37
2019-03-01T06:29:21.753Z,9.27
2019-03-01T06:32:07.439Z,13.60
2019-03-01T06:34:49.656Z,13.43
2019-03-01T06:37:38.302Z,13.47
2019-03-01T06:40:42.489Z,12.13
2019-03-01T06:43:40.331Z,12.00
2019-03-01T06:46:32.092Z,13.30
2019-03-01T06:49:07.154Z,14.07
2019-03-01T06:51:40.584Z,11.83
2019-03-01T06:54:13.991Z,12.47
2019-03-01T06:56:47.444Z,12.83
2019-03-01T06:59:20.834Z,12.40
2019-03-01T07:01:54.203Z,16.70
2019-03-01T07:04:27.671Z,15.67
2019-03-01T07:07:01.081Z,13.27
2019-03-01T07:09:34.469Z,14.33
2019-03-01T07:12:07.872Z,14.90
2019-03-01T07:14:41.312Z,18.13
2019-03-01T07:17:14.679Z,9.90
2019-03-01T07:19:48.083Z,12.17
2019-03-01T07:22:21.499Z,10.63
2019-03-01T07:24:54.896Z,12.73
2019-03-01T07:27:28.269Z,14.17
2019-03-01T07:30:01.668Z,17.00
2019-03-01T07:32:35.063Z,15.27
2019-03-01T07:35:09.554Z,13.53
2019-03-01T07:37:42.953Z,11.93
2019-03-01T07:40:16.421Z,8.67
2019-03-01T07:42:49.891Z,11.17
2019-03-01T07:45:23.482Z,12.07
2019-03-01T07:47:56.911Z,9.87
2019-03-01T07:50:30.544Z,8.33
2019-03-01T07:53:04.832Z,8.60
2019-03-01T07:55:38.436Z,7.87
2019-03-01T07:58:11.816Z,6.57
2019-03-01T08:00:47.219Z,8.47
2019-03-01T08:03:20.238Z,5.03
2019-03-01T08:05:53.581Z,5.83
2019-03-01T08:08:26.996Z,6.50
2019-03-01T08:11:00.354Z,5.97
2019-03-01T08:13:33.836Z,5.10
2019-03-01T08:16:07.194Z,3.60
2019-03-01T08:18:44.141Z,4.20
2019-03-01T08:21:15.712Z,4.13
2019-03-01T08:23:50.549Z,4.87
2019-03-01T08:26:24.320Z,7.83
2019-03-01T08:28:58.633Z,4.57
2019-03-01T08:31:32.750Z,3.10
2019-03-01T08:34:06.100Z,2.90
2019-03-01T08:36:42.384Z,3.30
2019-03-01T08:39:14.736Z,2.80
2019-03-01T08:41:48.122Z,3.80
2019-03-01T08:44:23.105Z,2.77
2019-03-01T08:46:56.613Z,4.60
2019-03-01T08:49:29.947Z,5.10
2019-03-01T08:52:03.458Z,3.40
2019-03-01T08:54:36.801Z,4.17
2019-03-01T08:57:10.224Z,3.87
2019-03-01T08:59:43.637Z,4.30
2019-03-01T09:02:17.069Z,5.30
2019-03-01T09:04:51.296Z,4.20
2019-03-01T09:07:27.134Z,3.87
2019-03-01T09:09:59.973Z,3.90
2019-03-01T09:12:33.410Z,3.87
2019-03-01T09:15:12.424Z,4.13
2019-03-01T09:17:45.769Z,3.97
2019-03-01T09:20:19.304Z,6.27
2019-03-01T09:22:52.740Z,4.03
2019-03-01T09:25:26.228Z,4.87
2019-03-01T09:27:59.588Z,4.30
2019-03-01T09:30:33.001Z,3.93
2019-03-01T09:33:06.360Z,4.17
2019-03-01T09:35:44.113Z,4.33
2019-03-01T09:38:17.484Z,4.40
2019-03-01T09:40:50.952Z,4.93
2019-03-01T09:43:27.471Z,3.80
2019-03-01T09:45:59.690Z,4.70
2019-03-01T09:48:33.163Z,3.83
2019-03-01T09:51:07.178Z,5.20
2019-03-01T09:53:41.863Z,3.43
2019-03-01T09:56:15.228Z,4.60
2019-03-01T09:58:48.739Z,5.30
2019-03-01T10:01:22.427Z,3.60
2019-03-01T10:03:56.333Z,3.63
2019-03-01T10:06:37.870Z,3.93
2019-03-01T10:09:08.203Z,4.07
2019-03-01T10:11:41.693Z,4.67
2019-03-01T10:14:15.055Z,4.23
2019-03-01T10:16:50.081Z,3.80
2019-03-01T10:19:23.427Z,4.17
2019-03-01T10:21:56.907Z,3.07
2019-03-01T10:24:30.268Z,3.53
2019-03-01T10:27:03.737Z,4.30
2019-03-01T10:29:37.183Z,5.63
2019-03-01T10:32:12.430Z,4.23
2019-03-01T10:34:45.681Z,3.83
2019-03-01T10:37:19.038Z,5.10
2019-03-01T10:39:55.557Z,3.60
2019-03-01T10:42:27.450Z,5.00
2019-03-01T10:45:00.831Z,3.50
2019-03-01T10:47:34.288Z,4.00
2019-03-01T10:50:10.496Z,3.67
2019-03-01T10:52:44.045Z,3.73
2019-03-01T10:55:18.762Z,3.87
2019-03-01T10:57:52.176Z,2.30
2019-03-01T11:00:32.132Z,3.43
2019-03-01T11:03:05.585Z,2.60
2019-03-01T11:05:39.026Z,2.73
2019-03-01T11:08:12.462Z,1.90
2019-03-01T11:10:45.890Z,2.20
2019-03-01T11:13:19.331Z,2.53
2019-03-01T11:15:52.679Z,1.90
2019-03-01T11:18:27.925Z,3.03
2019-03-01T11:21:01.243Z,3.90
2019-03-01T11:23:34.668Z,2.60
2019-03-01T11:26:08.134Z,2.97
2019-03-01T11:28:41.504Z,3.97
2019-03-01T11:31:14.908Z,4.03
2019-03-01T11:33:48.344Z,2.73
2019-03-01T11:36:21.761Z,4.43
2019-03-01T11:38:55.334Z,3.77
2019-03-01T11:41:28.726Z,4.53
2019-03-01T11:44:02.175Z,4.03
2019-03-01T11:46:35.590Z,4.20
2019-03-01T11:49:08.969Z,4.30
2019-03-01T11:51:42.300Z,4.07
2019-03-01T11:54:15.677Z,3.93
2019-03-01T11:56:49.119Z,4.57
2019-03-01T11:59:22.463Z,5.57
2019-03-01T12:01:56.075Z,4.77
2019-03-01T12:04:29.501Z,6.70
2019-03-01T12:07:02.947Z,5.87
2019-03-01T12:09:36.372Z,7.77
2019-03-01T12:12:09.804Z,8.27
2019-03-01T12:14:43.186Z,10.13
2019-03-01T12:17:16.559Z,14.03
2019-03-01T12:19:50.071Z,12.00
2019-03-01T12:22:23.493Z,10.87
2019-03-01T12:24:56.957Z,11.80
2019-03-01T12:27:30.384Z,12.77
2019-03-01T12:30:04.888Z,10.53
2019-03-01T12:32:38.443Z,10.57
2019-03-01T12:35:12.673Z,9.13
2019-03-01T12:37:46.104Z,10.97
2019-03-01T12:40:22.254Z,8.97
2019-03-01T12:42:55.744Z,9.10
2019-03-01T12:45:29.193Z,8.27
2019-03-01T12:48:02.611Z,8.80
2019-03-01T12:50:35.962Z,7.37
2019-03-01T12:53:09.347Z,8.90
2019-03-01T12:55:42.875Z,8.77
2019-03-01T12:58:19.434Z,9.63
2019-03-01T13:00:51.330Z,10.03
2019-03-01T13:03:24.759Z,11.83
2019-03-01T13:06:00.663Z,13.60
2019-03-01T13:08:33.213Z,14.20
2019-03-01T13:11:06.863Z,15.03
2019-03-01T13:13:40.342Z,13.23
2019-03-01T13:16:13.746Z,11.73
2019-03-01T13:18:47.607Z,12.97
2019-03-01T13:21:22.316Z,15.77
2019-03-01T13:23:55.940Z,14.77
2019-03-01T13:26:29.427Z,14.10
2019-03-01T13:29:02.833Z,14.93
2019-03-01T13:31:36.270Z,13.97
2019-03-01T13:34:10.541Z,15.37
2019-03-01T13:36:49.890Z,16.53
2019-03-01T13:39:23.281Z,18.97
2019-03-01T13:41:56.816Z,19.07
2019-03-01T13:44:30.192Z,22.20
2019-03-01T13:47:05.275Z,27.33
2019-03-01T13:49:38.705Z,26.73
2019-03-01T13:52:12.255Z,28.50
2019-03-01T13:54:46.300Z,28.57
2019-03-01T13:57:19.747Z,30.67
2019-03-01T13:59:53.053Z,31.37
2019-03-01T14:02:26.371Z,32.60
2019-03-01T14:04:59.683Z,30.70
2019-03-01T14:07:33.071Z,33.73
2019-03-01T14:10:12.223Z,36.37
2019-03-01T14:12:45.533Z,35.70
2019-03-01T14:15:18.900Z,40.37
2019-03-01T14:17:52.277Z,34.50
2019-03-01T14:20:25.631Z,33.03
2019-03-01T14:22:58.927Z,42.13
2019-03-01T14:25:32.249Z,42.00
2019-03-01T14:28:06.281Z,41.37
2019-03-01T14:30:40.646Z,41.63
2019-03-01T14:33:14.055Z,38.10
2019-03-01T14:35:47.424Z,43.27
2019-03-01T14:38:20.845Z,39.67
2019-03-01T14:40:56.084Z,40.43
2019-03-01T14:43:29.175Z,41.07
2019-03-01T14:46:02.474Z,41.70
2019-03-01T14:48:35.770Z,45.30
2019-03-01T14:51:10.888Z,48.03
2019-03-01T14:53:44.156Z,49.90
2019-03-01T14:56:21.580Z,50.00
2019-03-01T14:59:00.758Z,55.00
2019-03-01T15:01:45.884Z,52.80
2019-03-01T15:04:19.201Z,56.83
2019-03-01T15:06:55.037Z,59.97
2019-03-01T15:09:27.530Z,58.27
2019-03-01T15:12:00.810Z,59.73
2019-03-01T15:14:34.185Z,63.50
2019-03-01T15:17:07.563Z,58.77
2019-03-01T15:22:09.720Z,64.50
2019-03-01T15:24:44.598Z,58.13
2019-03-01T15:27:17.933Z,64.93
2019-03-01T15:29:51.326Z,64.03
2019-03-01T15:32:24.625Z,63.13
2019-03-01T15:35:02.793Z,67.43
2019-03-01T15:39:44.430Z,63.03
2019-03-01T15:48:57.763Z,65.10
2019-03-01T15:51:31.093Z,66.37
2019-03-01T15:54:04.415Z,70.30
2019-03-01T15:59:27.796Z,64.07
2019-03-01T16:02:01.099Z,69.23
2019-03-01T16:04:34.523Z,71.40
2019-03-01T16:07:07.848Z,66.63
2019-03-01T16:09:41.155Z,66.63
2019-03-01T16:12:14.545Z,68.20
2019-03-01T16:14:47.813Z,61.00
2019-03-01T16:17:24.352Z,63.83
2019-03-01T16:19:56.205Z,65.80
2019-03-01T16:22:29.536Z,66.67
2019-03-01T16:25:03.785Z,65.70
2019-03-01T16:27:37.103Z,68.83
2019-03-01T16:30:17.559Z,62.70
2019-03-01T16:32:50.810Z,67.50
2019-03-01T16:35:24.125Z,66.37
2019-03-01T16:38:02.576Z,62.70
2019-03-01T16:40:35.972Z,65.30
2019-03-01T16:43:09.358Z,63.00
2019-03-01T16:45:42.754Z,58.70
2019-03-01T16:48:16.848Z,61.93
2019-03-01T16:50:50.940Z,65.73
2019-03-01T16:53:24.254Z,59.43
2019-03-01T16:55:59.264Z,59.57
2019-03-01T16:58:32.592Z,60.97
2019-03-01T17:01:05.975Z,61.10
2019-03-01T17:03:39.292Z,57.27
2019-03-01T17:06:13.783Z,56.57
2019-03-01T17:08:47.618Z,61.50
2019-03-01T17:11:20.907Z,60.43
2019-03-01T17:13:55.800Z,64.53
2019-03-01T17:16:29.066Z,55.10
2019-03-01T17:19:02.378Z,56.43
2019-03-01T17:21:35.653Z,61.20
2019-03-01T17:24:08.954Z,56.87
2019-03-01T17:26:42.252Z,56.73
2019-03-01T17:29:15.640Z,53.13
2019-03-01T17:31:48.931Z,57.93
2019-03-01T17:34:25.808Z,58.10
2019-03-01T17:36:57.295Z,55.37
2019-03-01T17:39:30.761Z,53.03
2019-03-01T17:42:04.091Z,60.77
2019-03-01T17:44:37.398Z,59.80
2019-03-01T17:47:10.871Z,58.40
2019-03-01T17:49:44.119Z,54.93
2019-03-01T17:52:17.481Z,58.67
2019-03-01T17:54:50.816Z,51.73
2019-03-01T17:57:24.147Z,55.30
2019-03-01T17:59:57.465Z,57.07
2019-03-01T18:02:30.834Z,58.30
2019-03-01T18:05:05.958Z,58.87
2019-03-01T18:07:39.290Z,56.77
2019-03-01T18:10:14.327Z,55.00
2019-03-01T18:12:47.648Z,59.97
2019-03-01T18:15:21.026Z,58.47
2019-03-01T18:17:54.356Z,57.60
2019-03-01T18:20:27.641Z,59.60
2019-03-01T18:23:02.175Z,53.67
2019-03-01T18:25:36.124Z,54.37
2019-03-01T18:28:09.585Z,53.00
2019-03-01T18:30:43.649Z,54.93
2019-03-01T18:33:20.861Z,50.90
2019-03-01T18:35:52.464Z,50.97
2019-03-01T18:38:27.648Z,54.70
2019-03-01T18:41:02.124Z,56.07
2019-03-01T18:43:35.464Z,53.10
2019-03-01T18:46:08.760Z,55.73
2019-03-01T18:48:43.965Z,57.73
2019-03-01T18:51:17.140Z,58.53
2019-03-01T18:53:50.499Z,59.17
2019-03-01T18:56:25.044Z,59.03
2019-03-01T18:58:58.802Z,54.37
2019-03-01T19:01:32.160Z,56.07
2019-03-01T19:04:05.556Z,54.30
2019-03-01T19:06:38.845Z,55.23
2019-03-01T19:09:12.675Z,56.90
2019-03-01T19:11:47.250Z,53.83
2019-03-01T19:14:20.589Z,54.83
2019-03-01T19:16:53.887Z,50.53
2019-03-01T19:19:29.756Z,54.63
2019-03-01T19:22:02.320Z,57.27
2019-03-01T19:24:42.860Z,56.23
2019-03-01T19:27:15.528Z,52.17
2019-03-01T19:29:45.816Z,55.77
2019-03-01T19:32:19.110Z,54.43
2019-03-01T19:34:52.783Z,55.33
2019-03-01T19:37:26.854Z,55.40
2019-03-01T19:40:00.302Z,57.53
2019-03-01T19:42:34.160Z,50.43
2019-03-01T19:45:10.609Z,56.00
2019-03-01T19:47:43.976Z,56.20
2019-03-01T19:50:27.724Z,56.83
2019-03-01T19:53:01.017Z,54.47
2019-03-01T19:55:34.521Z,58.83
2019-03-01T19:58:08.669Z,51.40
2019-03-01T20:00:43.352Z,54.10
2019-03-01T20:03:16.697Z,55.93
2019-03-01T20:05:49.973Z,53.23
2019-03-01T20:08:23.309Z,54.47
2019-03-01T20:10:56.750Z,57.70
2019-03-01T20:13:30.093Z,58.70
2019-03-01T20:16:03.474Z,54.93
2019-03-01T20:18:36.782Z,53.87
2019-03-01T20:21:10.571Z,54.87
2019-03-01T20:23:44.086Z,52.97
2019-03-01T20:26:17.454Z,56.50
2019-03-01T20:28:51.357Z,56.43
2019-03-01T20:31:24.668Z,55.57
2019-03-01T20:33:58.581Z,57.87
2019-03-01T20:36:33.043Z,56.87
2019-03-01T20:39:06.519Z,55.50
2019-03-01T20:41:46.170Z,53.17
2019-03-01T20:44:18.713Z,59.53
2019-03-01T20:46:49.987Z,63.80
2019-03-01T20:49:29.888Z,52.97
2019-03-01T20:52:03.569Z,25.70
2019-03-01T20:54:37.980Z,32.90
2019-03-01T20:57:11.378Z,20.27
2019-03-01T20:59:46.843Z,21.27
2019-03-01T21:02:19.892Z,19.13
2019-03-01T21:04:53.784Z,20.67
2019-03-01T21:07:27.263Z,18.63
2019-03-01T21:10:00.595Z,14.67
2019-03-01T21:12:36.678Z,13.87
2019-03-01T21:15:11.372Z,19.10
2019-03-01T21:17:44.692Z,13.60
2019-03-01T21:20:19.516Z,16.70
2019-03-01T21:22:53.645Z,15.13
2019-03-01T21:25:27.041Z,13.37
2019-03-01T21:28:00.912Z,18.27
2019-03-01T21:30:35.592Z,18.13
2019-03-01T21:33:08.990Z,20.83
2019-03-01T21:35:42.321Z,17.13
2019-03-01T21:38:15.729Z,23.10
2019-03-01T21:40:49.032Z,19.63
2019-03-01T21:43:22.362Z,22.67
2019-03-01T21:45:59.027Z,20.43
2019-03-01T21:48:30.904Z,23.43
2019-03-01T21:51:04.997Z,22.17
2019-03-01T21:53:39.815Z,22.90
2019-03-01T21:56:13.473Z,27.43
2019-03-01T21:58:46.802Z,25.10
2019-03-01T22:01:20.104Z,30.40
2019-03-01T22:03:53.437Z,22.13
2019-03-01T22:06:26.752Z,23.87
2019-03-01T22:09:00.093Z,29.93
2019-03-01T22:11:33.398Z,26.43
2019-03-01T22:14:07.619Z,27.70
2019-03-01T22:16:41.965Z,26.50
2019-03-01T22:19:15.286Z,29.50
2019-03-01T22:21:48.585Z,26.13
2019-03-01T22:24:23.740Z,26.77
2019-03-01T22:26:57.135Z,27.70
2019-03-01T22:29:30.704Z,27.03
2019-03-01T22:32:04.045Z,27.73
2019-03-01T22:34:37.370Z,57.27
2019-03-01T22:37:10.811Z,53.63
2019-03-01T22:39:44.133Z,33.37
2019-03-01T22:42:17.449Z,25.37
2019-03-01T22:44:51.300Z,27.93
2019-03-01T22:47:24.633Z,25.20
2019-03-01T22:49:57.964Z,28.90
2019-03-01T22:52:31.433Z,30.83
2019-03-01T22:55:06.798Z,27.63
2019-03-01T22:57:40.158Z,27.83
2019-03-01T23:00:30.288Z,31.87
2019-03-01T23:03:03.579Z,30.93
2019-03-01T23:05:39.223Z,29.53
2019-03-01T23:08:12.065Z,29.83
2019-03-01T23:10:47.957Z,30.93
2019-03-01T23:13:21.857Z,30.57
2019-03-01T23:15:55.162Z,30.73
2019-03-01T23:18:28.514Z,29.13
2019-03-01T23:21:01.975Z,29.80
2019-03-01T23:23:35.284Z,27.80
2019-03-01T23:26:08.704Z,29.27
2019-03-01T23:28:43.749Z,26.47
2019-03-01T23:31:17.112Z,31.40
2019-03-01T23:33:50.433Z,31.00
2019-03-01T23:36:24.876Z,30.47
2019-03-01T23:38:58.770Z,28.47
2019-03-01T23:41:32.100Z,28.33
2019-03-01T23:44:06.557Z,29.73
2019-03-01T23:46:40.492Z,29.93
2019-03-01T23:49:13.824Z,29.13
2019-03-01T23:51:47.117Z,33.27
2019-03-01T23:54:20.449Z,30.87
2019-03-01T23:56:53.730Z,31.13
2019-03-01T23:59:27.530Z,30.77
